Time;durP1;ratioP1;P1;durP2;ratioP2;P2;SDS_P1;SDS_P2;PMS_P1;PMS_P2;Temp;Humidity;BMP_temperature;BMP_pressure;BME280_temperature;BME280_humidity;BME280_pressure;Samples;Min_cycle;Max_cycle;Signal;HPM_P1;HPM_P2
2021/10/31 00:00:08;;;;;;;50.45;23.98;;;;;;;5.92;80.25;101658.38;1640177;87;21572;-63
2021/10/31 00:02:40;;;;;;;46.70;22.55;;;;;;;5.87;80.15;101653.82;1640180;87;21760;-62
2021/10/31 00:05:10;;;;;;;49.63;23.57;;;;;;;5.86;80.22;101659.39;1640156;87;21602;-62
2021/10/31 00:07:39;;;;;;;49.27;22.82;;;;;;;5.84;80.20;101650.48;1643031;87;21142;-62
2021/10/31 00:10:09;;;;;;;48.58;24.07;;;;;;;5.81;80.24;101657.05;1618938;87;21184;-63
2021/10/31 00:12:41;;;;;;;47.35;22.70;;;;;;;5.78;80.35;101651.88;1619024;89;21236;-62
2021/10/31 00:15:10;;;;;;;45.67;21.87;;;;;;;5.77;80.43;101655.60;1619169;89;21148;-62
2021/10/31 00:17:39;;;;;;;43.48;21.48;;;;;;;5.74;80.31;101649.94;1619124;89;21157;-62
2021/10/31 00:20:09;;;;;;;41.15;20.82;;;;;;;5.72;80.31;101644.27;1618992;89;21227;-63
2021/10/31 00:22:38;;;;;;;42.33;21.55;;;;;;;5.70;80.32;101644.91;1619143;89;21331;-62
2021/10/31 00:25:08;;;;;;;43.45;22.32;;;;;;;5.68;80.38;101642.82;1618983;89;21160;-62
2021/10/31 00:27:38;;;;;;;39.00;19.98;;;;;;;5.64;80.35;101631.35;1619097;88;22076;-61
2021/10/31 00:30:08;;;;;;;43.85;21.55;;;;;;;5.62;80.30;101639.28;1618974;89;21655;-63
2021/10/31 00:32:37;;;;;;;44.18;20.48;;;;;;;5.61;80.38;101633.48;1619166;87;21200;-64
2021/10/31 00:35:06;;;;;;;41.18;20.60;;;;;;;5.63;80.37;101635.07;1619177;87;21140;-62
2021/10/31 00:37:35;;;;;;;42.05;20.77;;;;;;;5.61;80.29;101630.77;1619003;89;21157;-61
2021/10/31 00:40:06;;;;;;;41.02;20.43;;;;;;;5.54;80.27;101629.09;1619194;87;21633;-61
2021/10/31 00:42:35;;;;;;;43.85;19.67;;;;;;;5.53;80.38;101629.22;1619148;89;21152;-61
2021/10/31 00:45:07;;;;;;;41.13;20.60;;;;;;;5.55;80.43;101625.88;1618943;87;21204;-62
2021/10/31 00:47:36;;;;;;;42.10;20.70;;;;;;;5.57;80.33;101618.44;1619015;87;21164;-62
2021/10/31 00:50:08;;;;;;;36.75;19.65;;;;;;;5.55;80.20;101617.72;1619236;89;21160;-62
2021/10/31 00:52:38;;;;;;;40.15;21.20;;;;;;;5.53;80.18;101624.64;1619040;89;21208;-63
2021/10/31 00:55:08;;;;;;;41.45;19.07;;;;;;;5.52;80.14;101622.06;1619087;87;21156;-61
2021/10/31 00:57:37;;;;;;;38.00;19.27;;;;;;;5.49;80.06;101619.61;1619159;89;21745;-61
2021/10/31 01:00:09;;;;;;;38.53;18.82;;;;;;;5.45;80.03;101616.80;1618965;87;21168;-62
2021/10/31 01:02:39;;;;;;;40.58;19.20;;;;;;;5.41;79.95;101619.79;1619319;88;21615;-63
2021/10/31 01:05:11;;;;;;;37.33;18.55;;;;;;;5.37;80.07;101616.12;1619053;87;21164;-61
2021/10/31 01:07:57;;;;;;;35.92;19.00;;;;;;;5.34;80.13;101610.45;1618210;88;21172;-61
2021/10/31 01:10:33;;;;;;;39.53;18.90;;;;;;;5.34;80.20;101600.94;1594848;89;21176;-61
2021/10/31 01:13:50;;;;;;;36.73;18.30;;;;;;;5.30;80.16;101602.70;1584190;89;21625;-63
2021/10/31 01:16:49;;;;;;;35.50;18.67;;;;;;;5.31;80.17;101608.00;1596097;89;21180;-62
2021/10/31 01:19:57;;;;;;;37.38;18.55;;;;;;;5.30;80.09;101610.85;1594465;89;21275;-61
2021/10/31 01:22:53;;;;;;;26.93;13.83;;;;;;;5.22;80.01;101616.95;1594618;89;21260;-61
2021/10/31 01:26:11;;;;;;;37.03;17.85;;;;;;;5.16;80.12;101610.66;1594526;89;21200;-61
2021/10/31 01:29:07;;;;;;;40.83;19.05;;;;;;;5.17;80.11;101611.03;1594515;89;21196;-61
2021/10/31 01:32:06;;;;;;;37.35;18.42;;;;;;;5.15;80.15;101609.44;1594370;90;21344;-61
2021/10/31 01:34:47;;;;;;;38.85;19.50;;;;;;;5.13;80.22;101610.07;1594390;89;21216;-62
2021/10/31 01:37:58;;;;;;;40.50;19.37;;;;;;;5.10;80.22;101606.63;1593596;90;21160;-62
2021/10/31 01:40:51;;;;;;;36.95;18.60;;;;;;;5.08;80.20;101607.26;1585206;89;21245;-61
2021/10/31 01:43:33;;;;;;;37.73;19.45;;;;;;;5.05;80.16;101600.73;1605011;89;21161;-61
2021/10/31 01:46:20;;;;;;;37.50;19.25;;;;;;;5.04;80.16;101593.58;1597957;89;21363;-62
2021/10/31 01:49:06;;;;;;;34.80;17.95;;;;;;;5.00;80.13;101594.83;1595131;89;21583;-62
2021/10/31 01:51:55;;;;;;;39.47;19.53;;;;;;;4.92;80.13;101595.13;1594796;89;21619;-63
2021/10/31 01:54:41;;;;;;;36.65;17.82;;;;;;;4.88;80.22;101589.11;1594546;89;21164;-60
2021/10/31 01:57:11;;;;;;;38.17;19.57;;;;;;;4.86;80.23;101590.23;1594578;89;21232;-62
2021/10/31 01:59:44;;;;;;;39.67;20.15;;;;;;;4.83;80.09;101589.13;1594461;89;21205;-62
2021/10/31 02:02:13;;;;;;;38.30;19.92;;;;;;;4.81;80.23;101587.05;1594939;89;21581;-63
2021/10/31 02:04:45;;;;;;;37.00;18.55;;;;;;;4.77;80.29;101591.88;1594356;89;21283;-63
2021/10/31 02:07:13;;;;;;;38.13;19.27;;;;;;;4.75;80.34;101584.36;1595726;89;21282;-62
2021/10/31 02:09:42;;;;;;;36.30;18.35;;;;;;;4.76;80.29;101589.66;1603961;89;21619;-61
2021/10/31 02:12:15;;;;;;;37.90;19.42;;;;;;;4.78;80.21;101589.53;1586535;89;21214;-61
2021/10/31 02:14:43;;;;;;;38.15;19.52;;;;;;;4.72;80.03;101586.84;1613020;89;21191;-61
2021/10/31 02:17:12;;;;;;;33.85;17.12;;;;;;;4.67;79.97;101586.87;1612542;89;21827;-62
2021/10/31 02:19:44;;;;;;;36.40;18.00;;;;;;;4.60;79.95;101582.45;1591642;89;21246;-63
2021/10/31 02:22:27;;;;;;;34.70;17.80;;;;;;;4.58;80.06;101583.58;1612525;89;21250;-62
2021/10/31 02:24:55;;;;;;;34.50;17.80;;;;;;;4.59;80.01;101588.88;1612563;89;21183;-62
2021/10/31 02:27:24;;;;;;;32.30;17.90;;;;;;;4.54;79.73;101580.23;1658317;86;22000;-61
2021/10/31 02:29:56;;;;;;;29.50;16.67;;;;;;;4.51;79.74;101572.34;1628308;88;21172;-62
2021/10/31 02:32:29;;;;;;;32.05;17.73;;;;;;;4.46;79.53;101578.66;1628203;87;21316;-61
2021/10/31 02:34:59;;;;;;;33.90;17.57;;;;;;;4.42;79.44;101578.06;1628213;88;21602;-62
2021/10/31 02:37:28;;;;;;;35.45;18.32;;;;;;;4.38;79.31;101577.09;1628088;88;21192;-61
2021/10/31 02:39:57;;;;;;;35.92;18.75;;;;;;;4.34;79.28;101585.12;1628354;88;21226;-62
2021/10/31 02:42:26;;;;;;;36.15;19.62;;;;;;;4.34;79.30;101576.98;1628376;88;21207;-62
2021/10/31 02:44:55;;;;;;;34.05;18.20;;;;;;;4.35;79.29;101575.98;1628270;88;21164;-63
2021/10/31 02:47:38;;;;;;;38.28;19.57;;;;;;;4.34;79.21;101572.41;1628448;88;21643;-61
2021/10/31 02:50:11;;;;;;;30.40;17.57;;;;;;;4.30;79.15;101581.80;1628089;87;21156;-62
2021/10/31 02:53:11;;;;;;;35.85;17.52;;;;;;;4.29;79.08;101583.28;1628040;88;21188;-62
2021/10/31 02:56:06;;;;;;;34.73;18.05;;;;;;;4.26;79.04;101580.83;1628265;88;21143;-62
2021/10/31 02:58:57;;;;;;;35.00;18.62;;;;;;;4.23;78.98;101577.88;1612966;87;21183;-62
2021/10/31 03:01:26;;;;;;;33.67;17.80;;;;;;;4.24;79.07;101580.09;1628071;87;21164;-62
2021/10/31 03:03:55;;;;;;;31.15;17.07;;;;;;;4.26;79.04;101580.83;1628560;88;21211;-61
2021/10/31 03:06:25;;;;;;;30.12;16.73;;;;;;;4.26;78.92;101575.41;1628286;88;21309;-62
2021/10/31 03:08:54;;;;;;;31.40;16.10;;;;;;;4.27;78.80;101579.84;1628023;87;21211;-62
2021/10/31 03:11:24;;;;;;;31.37;16.95;;;;;;;4.26;78.51;101572.20;1628530;88;21148;-63
2021/10/31 03:13:54;;;;;;;30.12;16.42;;;;;;;4.21;78.48;101567.65;1607153;87;21772;-62
2021/10/31 03:16:23;;;;;;;29.00;16.15;;;;;;;4.19;78.39;101574.19;1628155;88;21633;-61
2021/10/31 03:18:53;;;;;;;28.73;15.93;;;;;;;4.13;78.29;101573.72;1628159;88;21247;-67
2021/10/31 03:21:23;;;;;;;31.57;16.12;;;;;;;4.08;78.35;101570.52;1628436;88;21190;-63
2021/10/31 03:23:52;;;;;;;28.25;15.88;;;;;;;4.05;78.34;101572.13;1628229;88;21199;-61
2021/10/31 03:26:21;;;;;;;33.58;17.20;;;;;;;4.05;78.38;101570.78;1628273;88;21287;-64
2021/10/31 03:28:50;;;;;;;32.28;17.37;;;;;;;4.02;78.28;101571.03;1628169;88;21132;-62
2021/10/31 03:31:19;;;;;;;31.17;16.57;;;;;;;3.97;78.38;101571.91;1628597;88;21587;-61
2021/10/31 03:33:48;;;;;;;27.00;15.03;;;;;;;3.97;78.46;101572.40;1628173;87;21783;-61
2021/10/31 03:36:18;;;;;;;32.40;16.20;;;;;;;3.94;78.42;101568.58;1628210;87;21196;-61
2021/10/31 03:38:47;;;;;;;31.95;15.03;;;;;;;3.91;78.45;101578.33;1628453;88;21354;-62
2021/10/31 03:41:16;;;;;;;29.65;16.07;;;;;;;3.86;78.49;101573.25;1628375;88;21263;-62
2021/10/31 03:43:46;;;;;;;32.25;17.10;;;;;;;3.82;78.63;101569.92;1628180;88;21654;-62
2021/10/31 03:46:15;;;;;;;29.77;15.58;;;;;;;3.75;78.67;101559.71;1628363;87;21199;-62
2021/10/31 03:48:44;;;;;;;27.05;15.03;;;;;;;3.72;78.81;101564.03;1628121;88;21594;-62
2021/10/31 03:51:13;;;;;;;35.98;16.32;;;;;;;3.71;79.01;101561.81;1628348;88;21629;-61
2021/10/31 03:53:42;;;;;;;29.37;15.30;;;;;;;3.69;78.96;101556.15;1628251;87;21664;-62
2021/10/31 03:56:11;;;;;;;31.48;16.60;;;;;;;3.70;79.03;101556.52;1628389;87;21732;-62
2021/10/31 03:58:40;;;;;;;34.53;17.25;;;;;;;3.70;79.12;101557.88;1628165;88;21191;-61
2021/10/31 04:01:09;;;;;;;31.77;16.57;;;;;;;3.67;79.19;101549.50;1628277;88;21607;-61
2021/10/31 04:03:38;;;;;;;31.25;16.57;;;;;;;3.67;79.28;101559.48;1628202;87;21579;-62
2021/10/31 04:06:08;;;;;;;30.80;15.80;;;;;;;3.66;79.33;101551.84;1628124;87;21139;-62
2021/10/31 04:08:38;;;;;;;30.85;16.10;;;;;;;3.68;79.27;101560.70;1629380;87;21208;-61
2021/10/31 04:11:10;;;;;;;32.67;17.37;;;;;;;3.65;79.14;101548.77;1651506;87;21337;-61
2021/10/31 04:13:39;;;;;;;33.78;18.25;;;;;;;3.60;79.23;101552.34;1622508;87;21626;-61
2021/10/31 04:16:09;;;;;;;32.05;17.73;;;;;;;3.58;79.35;101550.25;1603696;89;21647;-60
2021/10/31 04:18:38;;;;;;;34.48;19.10;;;;;;;3.56;79.42;101543.23;1603794;89;21613;-61
2021/10/31 04:21:07;;;;;;;39.78;19.55;;;;;;;3.55;79.48;101541.01;1603895;89;21172;-63
2021/10/31 04:23:35;;;;;;;36.68;19.10;;;;;;;3.52;79.36;101543.11;1603664;89;21212;-62
2021/10/31 04:26:05;;;;;;;39.27;20.30;;;;;;;3.49;79.36;101536.95;1603707;89;21191;-62
2021/10/31 04:28:35;;;;;;;36.80;18.95;;;;;;;3.47;79.39;101534.86;1603432;89;21272;-62
2021/10/31 04:31:04;;;;;;;33.08;18.73;;;;;;;3.49;79.46;101526.11;1603863;89;21590;-62
2021/10/31 04:33:34;;;;;;;31.33;17.85;;;;;;;3.48;79.41;101531.16;1604054;89;21192;-62
2021/10/31 04:36:04;;;;;;;36.55;17.65;;;;;;;3.47;79.32;101534.86;1603951;89;21587;-61
2021/10/31 04:38:35;;;;;;;35.63;18.40;;;;;;;3.46;79.20;101530.92;1603651;89;21152;-59
2021/10/31 04:41:06;;;;;;;36.95;19.25;;;;;;;3.47;79.25;101536.70;1603645;89;21184;-62
2021/10/31 04:43:35;;;;;;;38.48;19.07;;;;;;;3.45;79.17;101535.47;1603605;89;21591;-62
2021/10/31 04:46:04;;;;;;;36.05;18.95;;;;;;;3.40;79.20;101536.34;1603663;89;21270;-60
2021/10/31 04:48:33;;;;;;;39.00;20.97;;;;;;;3.39;79.24;101537.82;1603630;89;21672;-61
2021/10/31 04:51:01;;;;;;;44.98;23.32;;;;;;;3.34;79.24;101540.89;1603715;89;21140;-60
2021/10/31 04:53:31;;;;;;;54.40;25.77;;;;;;;3.29;79.37;101535.48;1603748;89;21686;-60
2021/10/31 04:56:02;;;;;;;53.95;26.77;;;;;;;3.29;79.37;101537.70;1603648;89;21722;-62
2021/10/31 04:58:31;;;;;;;51.18;25.15;;;;;;;3.27;79.47;101538.80;1603810;89;21187;-63
2021/10/31 05:01:01;;;;;;;48.28;24.70;;;;;;;3.27;79.58;101538.80;1603856;89;21571;-61
2021/10/31 05:03:30;;;;;;;48.40;23.22;;;;;;;3.28;79.60;101546.80;1603691;89;21172;-62
2021/10/31 05:05:59;;;;;;;50.92;25.12;;;;;;;3.28;79.46;101535.11;1603826;89;21599;-61
2021/10/31 05:08:28;;;;;;;51.13;25.02;;;;;;;3.24;79.45;101534.46;1603597;89;21651;-62
2021/10/31 05:10:57;;;;;;;57.03;27.10;;;;;;;3.30;79.53;101541.27;1612494;89;21696;-62
2021/10/31 05:13:27;;;;;;;54.13;25.37;;;;;;;3.32;79.44;101536.59;1612703;89;21714;-62
2021/10/31 05:15:58;;;;;;;56.40;24.95;;;;;;;3.31;79.42;101545.20;1612936;89;21985;-61
2021/10/31 05:18:27;;;;;;;46.40;24.07;;;;;;;3.30;79.46;101548.91;1612662;89;21200;-63
2021/10/31 05:20:56;;;;;;;44.65;22.20;;;;;;;3.28;79.51;101542.74;1612568;89;21219;-62
2021/10/31 05:23:26;;;;;;;54.08;23.45;;;;;;;3.30;79.54;101548.91;1610446;89;21200;-61
2021/10/31 05:25:55;;;;;;;52.15;23.95;;;;;;;3.29;79.46;101544.47;1610784;89;21139;-61
2021/10/31 05:28:25;;;;;;;49.33;22.87;;;;;;;3.26;79.53;101547.42;1610851;89;21311;-61
2021/10/31 05:30:54;;;;;;;48.25;22.95;;;;;;;3.23;79.67;101551.70;1610889;89;21261;-61
2021/10/31 05:33:24;;;;;;;37.98;20.00;;;;;;;3.21;79.75;101546.89;1611066;89;21593;-61
2021/10/31 05:35:53;;;;;;;39.05;19.60;;;;;;;3.20;79.85;101553.30;1610665;89;21167;-62
2021/10/31 05:38:22;;;;;;;41.95;20.95;;;;;;;3.22;79.98;101549.11;1610620;89;21317;-62
2021/10/31 05:40:51;;;;;;;46.90;23.67;;;;;;;3.26;80.07;101544.72;1610665;89;21214;-62
2021/10/31 05:43:19;;;;;;;42.20;21.77;;;;;;;3.29;80.06;101547.17;1591065;89;21171;-62
2021/10/31 05:45:49;;;;;;;39.18;21.48;;;;;;;3.32;80.18;101546.07;1610878;89;21619;-63
2021/10/31 05:48:19;;;;;;;36.15;20.00;;;;;;;3.35;80.26;101553.95;1610456;89;21243;-61
2021/10/31 05:50:48;;;;;;;43.83;22.50;;;;;;;3.37;80.29;101552.84;1610852;89;21607;-62
2021/10/31 05:53:21;;;;;;;38.58;20.48;;;;;;;3.37;80.34;101547.91;1610739;89;21207;-61
2021/10/31 05:55:50;;;;;;;40.45;21.15;;;;;;;3.40;80.49;101545.83;1610673;89;21330;-63
2021/10/31 05:58:20;;;;;;;39.98;19.82;;;;;;;3.46;80.58;101556.16;1610671;89;21167;-62
2021/10/31 06:00:48;;;;;;;32.67;17.70;;;;;;;3.52;80.65;101558.01;1610706;89;21626;-61
2021/10/31 06:03:17;;;;;;;32.78;18.05;;;;;;;3.54;80.71;101550.62;1610837;89;21608;-60
2021/10/31 06:05:47;;;;;;;38.20;19.40;;;;;;;3.59;80.72;101556.53;1610679;89;21290;-61
2021/10/31 06:08:17;;;;;;;40.55;19.90;;;;;;;3.65;80.73;101560.09;1610837;89;21195;-61
2021/10/31 06:10:47;;;;;;;42.38;20.65;;;;;;;3.70;80.66;101560.09;1598502;89;21640;-62
2021/10/31 06:13:19;;;;;;;40.88;21.07;;;;;;;3.74;80.71;101556.63;1616273;88;21202;-61
2021/10/31 06:15:50;;;;;;;44.77;21.62;;;;;;;3.79;80.72;101557.12;1568968;91;21190;-61
2021/10/31 06:18:22;;;;;;;40.80;20.43;;;;;;;3.84;80.73;101558.95;1572991;91;21152;-60
2021/10/31 06:20:51;;;;;;;37.50;19.52;;;;;;;3.89;80.68;101551.80;1595110;90;21210;-61
2021/10/31 06:23:22;;;;;;;39.03;19.98;;;;;;;3.93;80.44;101558.23;1573042;90;21199;-62
2021/10/31 06:25:51;;;;;;;40.63;20.68;;;;;;;3.95;80.46;101555.39;1595104;89;21199;-62
2021/10/31 06:28:20;;;;;;;44.73;21.68;;;;;;;3.97;80.36;101561.06;1572914;91;21206;-63
2021/10/31 06:30:50;;;;;;;36.93;19.12;;;;;;;3.99;80.38;101562.28;1571972;91;22201;-63
2021/10/31 06:33:18;;;;;;;44.65;20.95;;;;;;;4.01;80.37;101561.66;1577667;90;21200;-63
2021/10/31 06:35:49;;;;;;;41.30;19.32;;;;;;;4.03;80.42;101565.98;1594482;89;21632;-62
2021/10/31 06:38:18;;;;;;;42.43;21.80;;;;;;;4.09;80.45;101564.61;1594403;90;21620;-62
2021/10/31 06:40:47;;;;;;;38.63;20.55;;;;;;;4.16;80.35;101570.38;1594400;90;21176;-62
2021/10/31 06:43:16;;;;;;;40.98;20.92;;;;;;;4.19;80.33;101570.13;1594481;89;21244;-61
2021/10/31 06:45:45;;;;;;;38.55;20.02;;;;;;;4.23;80.35;101565.67;1594696;90;21587;-62
2021/10/31 06:48:15;;;;;;;37.30;19.50;;;;;;;4.29;80.36;101570.58;1594413;89;21248;-61
2021/10/31 06:50:43;;;;;;;42.45;20.75;;;;;;;4.34;80.33;101564.77;1594386;90;21228;-62
2021/10/31 06:53:12;;;;;;;40.63;20.27;;;;;;;4.42;80.23;101563.62;1594315;90;21737;-62
2021/10/31 06:55:41;;;;;;;42.27;21.37;;;;;;;4.49;80.10;101565.33;1594618;90;21637;-62
2021/10/31 06:58:12;;;;;;;41.25;20.37;;;;;;;4.56;80.04;101563.84;1594359;89;21136;-62
2021/10/31 07:00:41;;;;;;;43.08;20.77;;;;;;;4.63;79.97;101560.48;1594326;90;21156;-62
2021/10/31 07:03:10;;;;;;;38.10;20.45;;;;;;;4.70;79.87;101563.53;1594326;90;21164;-62
2021/10/31 07:05:39;;;;;;;46.10;20.95;;;;;;;4.77;79.78;101551.15;1594438;90;21180;-62
2021/10/31 07:08:10;;;;;;;40.25;19.73;;;;;;;4.82;79.63;101550.75;1594526;90;21810;-62
2021/10/31 07:10:40;;;;;;;38.20;20.37;;;;;;;4.90;79.55;101550.95;1602438;89;21194;-62
2021/10/31 07:13:09;;;;;;;43.60;21.50;;;;;;;4.97;79.48;101543.49;1656205;87;21605;-62
2021/10/31 07:15:38;;;;;;;41.53;20.60;;;;;;;5.04;79.37;101545.17;1623947;88;21232;-64
2021/10/31 07:18:06;;;;;;;40.83;21.33;;;;;;;5.10;79.29;101547.36;1604207;89;21159;-64
2021/10/31 07:20:35;;;;;;;39.83;20.20;;;;;;;5.17;79.15;101545.83;1603925;89;21635;-64
2021/10/31 07:23:04;;;;;;;42.23;21.45;;;;;;;5.26;79.00;101544.19;1603919;89;21573;-62
2021/10/31 07:25:35;;;;;;;40.35;20.23;;;;;;;5.32;78.83;101544.50;1595320;89;21572;-62
2021/10/31 07:28:04;;;;;;;39.15;20.32;;;;;;;5.40;78.77;101542.47;1594795;90;21628;-63
2021/10/31 07:30:34;;;;;;;35.85;19.52;;;;;;;5.58;78.92;101548.11;1594606;90;21244;-63
2021/10/31 07:33:04;;;;;;;34.73;18.37;;;;;;;5.90;78.88;101547.99;1594602;89;21132;-62
2021/10/31 07:35:34;;;;;;;38.33;18.27;;;;;;;6.31;78.44;101541.47;1594648;90;21152;-63
2021/10/31 11:11:15;;;;;;;14.28;7.10;;;;;;;11.82;58.26;101366.59;1822079;77;28176;-63
2021/10/31 11:13:51;;;;;;;36.20;7.17;;;;;;;11.84;57.68;101363.15;1783324;80;21133;-64
2021/10/31 11:16:20;;;;;;;27.10;6.85;;;;;;;11.87;56.89;101366.91;1787865;80;21151;-63
2021/10/31 11:18:52;;;;;;;16.85;6.45;;;;;;;11.89;56.59;101368.42;1751150;82;21154;-65
2021/10/31 11:21:21;;;;;;;13.28;6.15;;;;;;;11.92;56.45;101373.55;1731196;82;21161;-63
2021/10/31 11:24:12;;;;;;;10.72;6.35;;;;;;;11.93;56.43;101375.27;1754208;81;21241;-63
2021/10/31 11:26:41;;;;;;;9.45;5.33;;;;;;;11.97;56.38;101368.88;1731606;82;21633;-65
2021/10/31 11:29:10;;;;;;;12.75;6.15;;;;;;;11.97;56.27;101362.02;1709404;83;21567;-64
2021/10/31 11:31:40;;;;;;;11.12;6.17;;;;;;;11.96;55.92;101363.91;1723130;82;21176;-64
2021/10/31 11:34:10;;;;;;;9.78;5.83;;;;;;;11.95;56.00;101358.08;1763790;80;21138;-65
2021/10/31 11:36:48;;;;;;;12.47;5.58;;;;;;;11.95;55.75;101348.98;1688508;82;21276;-63
2021/10/31 11:39:16;;;;;;;;;;;;;;;11.93;55.83;101344.20;1685994;83;21127;-62
2021/10/31 11:41:47;;;;;;;42.08;23.45;;;;;;;11.93;55.86;101346.94;1709062;83;20185;-62
2021/10/31 11:44:16;;;;;;;13.30;7.65;;;;;;;11.89;55.85;101335.98;1769460;79;21121;-63
2021/10/31 11:46:46;;;;;;;13.13;6.62;;;;;;;11.89;55.86;101340.97;1806848;79;21114;-63
2021/10/31 11:49:16;;;;;;;12.43;6.45;;;;;;;11.89;55.32;101339.59;1784462;79;21171;-64
2021/10/31 11:51:48;;;;;;;13.62;6.87;;;;;;;11.89;55.58;101329.13;1774085;79;21094;-63
2021/10/31 11:54:17;;;;;;;13.28;6.58;;;;;;;11.88;55.72;101319.17;1802096;79;21141;-62
2021/10/31 11:56:53;;;;;;;10.18;5.92;;;;;;;11.90;55.72;101318.47;1794195;79;21140;-63
2021/10/31 11:59:22;;;;;;;11.97;6.42;;;;;;;11.90;55.29;101313.84;1804178;79;21653;-62
2021/10/31 12:01:59;;;;;;;15.83;7.22;;;;;;;11.94;55.29;101317.06;1790852;79;21213;-63
2021/10/31 12:04:58;;;;;;;10.50;6.50;;;;;;;11.95;55.14;101307.79;1795435;79;21197;-64
2021/10/31 12:07:48;;;;;;;8.60;5.33;;;;;;;11.95;55.07;101306.41;1781623;79;21121;-64
2021/10/31 12:10:49;;;;;;;10.88;5.87;;;;;;;11.95;55.17;101297.66;1798676;79;21118;-63
2021/10/31 12:13:25;;;;;;;14.50;5.80;;;;;;;11.94;55.18;101293.20;1761593;81;21224;-62
2021/10/31 12:16:05;;;;;;;9.10;4.92;;;;;;;11.95;55.15;101288.56;1797616;78;21221;-65
2021/10/31 12:19:07;;;;;;;9.65;5.58;;;;;;;11.96;55.15;101286.16;1784948;79;21151;-61
2021/10/31 12:21:38;;;;;;;10.08;5.40;;;;;;;11.96;55.09;101285.63;1785479;79;21163;-62
2021/10/31 12:24:23;;;;;;;14.95;5.75;;;;;;;11.97;55.06;101289.23;1810103;79;21146;-63
2021/10/31 12:26:54;;;;;;;11.95;5.75;;;;;;;11.97;55.06;101281.84;1795384;79;21530;-63
2021/10/31 12:29:30;;;;;;;11.75;5.05;;;;;;;11.99;54.98;101282.52;1801719;79;21272;-63
2021/10/31 12:32:17;;;;;;;10.15;5.30;;;;;;;12.00;54.88;101276.50;1749560;81;21069;-64
2021/10/31 12:37:32;;;;;;;8.30;5.03;;;;;;;12.04;54.56;101271.82;1812806;79;21617;-65
2021/10/31 12:40:15;;;;;;;9.68;5.00;;;;;;;12.04;54.30;101274.57;1755245;81;21110;-63
2021/10/31 12:42:50;;;;;;;9.35;5.30;;;;;;;12.04;54.25;101271.82;1800525;79;21121;-62
2021/10/31 12:45:33;;;;;;;10.82;5.53;;;;;;;12.02;54.33;101265.66;1740679;81;21193;-64
2021/10/31 12:48:10;;;;;;;11.43;5.47;;;;;;;12.03;54.48;101263.25;1816210;79;21220;-64
2021/10/31 12:50:47;;;;;;;9.73;5.20;;;;;;;12.01;54.51;101259.84;1816203;79;21122;-64
2021/10/31 12:53:16;;;;;;;16.93;6.20;;;;;;;12.01;54.62;101259.84;1816237;79;21181;-64
2021/10/31 12:55:46;;;;;;;12.80;5.35;;;;;;;12.00;54.73;101257.27;1816104;79;21090;-63
2021/10/31 12:58:21;;;;;;;10.35;5.65;;;;;;;12.02;54.53;101248.33;1816331;79;21177;-63
2021/10/31 13:00:53;;;;;;;12.60;5.50;;;;;;;12.04;54.49;101249.84;1794629;79;21268;-65
2021/10/31 13:03:23;;;;;;;12.18;5.65;;;;;;;12.05;54.54;101252.08;1793518;79;21110;-64
2021/10/31 13:05:52;;;;;;;13.68;6.12;;;;;;;12.05;54.54;101249.33;1816051;79;21561;-63
2021/10/31 13:08:21;;;;;;;12.58;5.78;;;;;;;12.04;54.18;101251.73;1816190;79;21529;-63
2021/10/31 13:11:05;;;;;;;14.20;5.97;;;;;;;12.04;54.27;101246.25;1817928;79;21113;-64
2021/10/31 13:13:34;;;;;;;12.65;5.67;;;;;;;12.06;54.29;101244.16;1818765;79;21161;-64
2021/10/31 13:19:08;;;;;;;13.53;5.60;;;;;;;12.03;54.27;101238.52;1789588;79;21153;-62
2021/10/31 13:27:25;;;;;;;12.18;6.47;;;;;;;11.97;54.63;101246.66;1764013;81;21131;-63
2021/10/31 13:29:55;;;;;;;10.50;5.72;;;;;;;11.94;54.66;101245.14;1791591;79;21097;-63
2021/10/31 13:32:26;;;;;;;11.48;6.28;;;;;;;11.93;54.63;101244.80;1806270;79;21131;-63
2021/10/31 13:35:06;;;;;;;15.63;6.25;;;;;;;11.91;54.60;101239.16;1812426;79;21611;-63
2021/10/31 13:46:35;;;;;;;18.30;6.62;;;;;;;11.84;54.91;101240.95;1784076;79;21225;-62
2021/10/31 13:49:10;;;;;;;20.02;6.80;;;;;;;11.82;54.93;101227.92;1764794;81;21235;-64
2021/10/31 13:51:42;;;;;;;18.50;6.75;;;;;;;11.82;55.00;101230.67;1761739;81;21182;-63
2021/10/31 13:54:12;;;;;;;15.08;6.50;;;;;;;11.79;55.05;101220.06;1744654;81;21166;-66
2021/10/31 13:56:47;;;;;;;13.55;6.37;;;;;;;11.76;55.10;101223.99;1761028;81;21161;-63
2021/10/31 14:02:01;;;;;;;13.38;6.33;;;;;;;11.69;55.15;101218.36;1794725;79;21164;-64
2021/10/31 14:07:11;;;;;;;12.53;6.72;;;;;;;11.63;55.27;101216.87;1815342;79;21826;-62
2021/10/31 14:09:50;;;;;;;17.82;7.25;;;;;;;11.60;55.39;101219.47;1813532;79;21106;-64
2021/10/31 14:15:22;;;;;;;19.07;7.00;;;;;;;11.54;55.58;101215.23;1780707;79;21560;-62
2021/10/31 14:18:08;;;;;;;15.65;7.35;;;;;;;11.50;55.73;101210.63;1772551;79;21599;-61
2021/10/31 14:20:44;;;;;;;17.12;7.58;;;;;;;11.48;55.85;101209.11;1764883;81;21141;-62
2021/10/31 14:23:29;;;;;;;15.50;7.20;;;;;;;11.43;56.00;101212.41;1764594;80;21255;-62
2021/10/31 14:26:03;;;;;;;15.58;7.55;;;;;;;11.38;56.11;101215.70;1764697;81;21157;-63
2021/10/31 14:28:35;;;;;;;17.37;7.87;;;;;;;11.34;56.26;101213.50;1764670;81;21184;-61
2021/10/31 14:31:06;;;;;;;14.07;8.18;;;;;;;11.30;56.39;101213.53;1767688;79;21148;-62
2021/10/31 14:33:38;;;;;;;18.00;8.10;;;;;;;11.25;57.12;101210.48;1797715;79;21134;-60
2021/10/31 14:36:17;;;;;;;15.30;8.33;;;;;;;11.19;56.96;101209.84;1773207;79;21196;-63
2021/10/31 14:38:59;;;;;;;18.98;8.18;;;;;;;11.14;57.05;101209.53;1799918;79;21165;-63
2021/10/31 14:41:33;;;;;;;17.70;8.03;;;;;;;11.08;57.17;101207.86;1790632;79;21161;-62
2021/10/31 14:44:08;;;;;;;17.40;9.75;;;;;;;11.02;57.28;101197.58;1796701;79;21204;-62
2021/10/31 14:46:53;;;;;;;19.40;8.75;;;;;;;10.97;57.42;101190.92;1798763;79;21123;-64
2021/10/31 14:49:25;;;;;;;20.82;9.20;;;;;;;10.91;57.61;101193.02;1779914;79;21169;-63
2021/10/31 14:52:03;;;;;;;19.98;9.55;;;;;;;10.83;57.83;101198.55;1782290;79;21563;-61
2021/10/31 14:54:48;;;;;;;26.93;9.85;;;;;;;10.74;58.08;101197.74;1782155;79;21220;-64
2021/10/31 15:00:13;;;;;;;19.07;11.25;;;;;;;10.62;58.67;101198.66;1767866;79;21579;-63
2021/10/31 15:02:54;;;;;;;22.07;11.30;;;;;;;10.60;58.78;101197.13;1765645;79;21218;-62
2021/10/31 15:05:25;;;;;;;18.30;10.28;;;;;;;10.57;58.96;101193.37;1783914;80;21646;-63
2021/10/31 15:07:55;;;;;;;20.30;10.35;;;;;;;10.55;59.55;101191.33;1757429;81;21197;-64
2021/10/31 15:10:25;;;;;;;19.17;10.45;;;;;;;10.54;59.38;101185.52;1818395;78;21685;-63
2021/10/31 15:12:54;;;;;;;18.55;9.50;;;;;;;10.54;59.42;101193.22;1818321;78;21153;-63
2021/10/31 15:15:24;;;;;;;20.82;10.60;;;;;;;10.52;59.54;101193.91;1818221;79;21216;-63
2021/10/31 15:17:54;;;;;;;19.67;10.60;;;;;;;10.52;59.73;101195.80;1818400;78;21562;-63
2021/10/31 15:20:23;;;;;;;20.40;10.93;;;;;;;10.49;59.72;101191.53;1818360;79;21074;-62
2021/10/31 15:22:55;;;;;;;20.23;10.05;;;;;;;10.46;59.81;101183.66;1818298;79;21608;-64
2021/10/31 15:25:25;;;;;;;19.62;10.98;;;;;;;10.44;59.90;101188.47;1818707;78;21272;-63
2021/10/31 15:27:54;;;;;;;22.00;11.33;;;;;;;10.42;59.99;101189.16;1818619;79;21095;-62
2021/10/31 15:30:23;;;;;;;20.12;10.65;;;;;;;10.37;60.09;101189.66;1818303;79;21118;-64
2021/10/31 15:32:52;;;;;;;21.50;11.75;;;;;;;10.32;60.27;101186.59;1818355;79;21113;-62
2021/10/31 15:35:21;;;;;;;26.07;11.88;;;;;;;10.28;60.40;101190.72;1818221;78;21213;-63
2021/10/31 15:37:50;;;;;;;22.42;11.45;;;;;;;10.23;60.57;101194.50;1818357;78;21141;-64
2021/10/31 15:40:19;;;;;;;22.25;11.22;;;;;;;10.18;60.79;101188.67;1818574;78;21161;-63
2021/10/31 15:42:50;;;;;;;21.95;11.40;;;;;;;10.14;60.92;101191.42;1818342;79;21154;-61
2021/10/31 15:45:19;;;;;;;28.07;12.63;;;;;;;10.11;61.03;101190.40;1803865;79;21109;-63
2021/10/31 15:47:49;;;;;;;20.60;11.25;;;;;;;10.10;61.70;101188.17;1788582;80;21184;-62